createdAt,value
2017-06-27T00:00:27.467Z,12.31
2017-06-27T00:01:27.587Z,12.29
2017-06-27T00:02:27.718Z,12.33
2017-06-27T00:03:27.138Z,12.28
2017-06-27T00:04:27.121Z,12.25
2017-06-27T00:05:27.440Z,12.25
2017-06-27T00:06:27.836Z,12.29
2017-06-27T00:07:27.267Z,12.19
2017-06-27T00:08:27.848Z,12.23
2017-06-27T00:09:27.110Z,12.15
2017-06-27T00:10:27.126Z,12.19
2017-06-27T00:11:27.412Z,12.16
2017-06-27T00:12:27.090Z,12.13
2017-06-27T00:13:27.132Z,12.13
2017-06-27T00:14:27.779Z,12.16
2017-06-27T00:15:27.055Z,12.15
2017-06-27T00:16:27.367Z,12.19
2017-06-27T00:17:27.365Z,12.13
2017-06-27T00:18:27.038Z,12.13
2017-06-27T00:19:27.034Z,12.15
2017-06-27T00:20:27.030Z,12.15
2017-06-27T00:21:27.020Z,12.2
2017-06-27T00:22:27.015Z,12.18
2017-06-27T00:23:27.323Z,12.16
2017-06-27T00:24:26.999Z,12.19
2017-06-27T00:25:26.996Z,12.23
2017-06-27T00:26:27.313Z,12.22
2017-06-27T00:27:26.987Z,12.2
2017-06-27T00:28:27.307Z,12.23
2017-06-27T00:29:27.294Z,12.25
2017-06-27T00:30:27.363Z,12.15
2017-06-27T00:31:26.677Z,12.2
2017-06-27T00:32:26.969Z,12.25
2017-06-27T00:33:27.082Z,12.25
2017-06-27T00:34:27.295Z,12.18
2017-06-27T00:35:26.659Z,12.19
2017-06-27T00:36:26.944Z,12.22
2017-06-27T00:37:26.955Z,12.2
2017-06-27T00:38:26.945Z,12.22
2017-06-27T00:39:26.641Z,12.22
2017-06-27T00:40:26.902Z,12.19
2017-06-27T00:41:27.217Z,12.2
2017-06-27T00:42:27.210Z,12.23
2017-06-27T00:43:26.894Z,12.18
2017-06-27T00:44:26.886Z,12.15
2017-06-27T00:45:26.893Z,12.19
2017-06-27T00:46:27.187Z,12.18
2017-06-27T00:47:26.558Z,12.2
2017-06-27T00:48:26.853Z,12.23
2017-06-27T00:49:26.524Z,12.19
2017-06-27T00:50:26.839Z,12.18
2017-06-27T00:51:26.837Z,12.19
2017-06-27T00:52:27.201Z,12.18
2017-06-27T00:53:26.823Z,12.1
2017-06-27T00:54:26.815Z,12.15
2017-06-27T00:55:26.500Z,12.13
2017-06-27T00:56:27.124Z,12.1
2017-06-27T00:57:27.120Z,12.19
2017-06-27T00:58:27.127Z,12.05
2017-06-27T00:59:26.460Z,12.08
2017-06-27T01:00:26.777Z,12.07
2017-06-27T01:01:27.120Z,12.03
2017-06-27T01:02:26.779Z,12.04
2017-06-27T01:03:26.437Z,11.98
2017-06-27T01:04:26.756Z,12.03
2017-06-27T01:05:27.072Z,11.97
2017-06-27T01:06:26.417Z,11.95
2017-06-27T01:07:27.059Z,12.03
2017-06-27T01:08:27.074Z,12
2017-06-27T01:09:26.750Z,12.03
2017-06-27T01:10:26.725Z,11.91
2017-06-27T01:11:26.389Z,11.91
2017-06-27T01:12:27.022Z,11.94
2017-06-27T01:13:26.751Z,11.89
2017-06-27T01:14:27.005Z,11.91
2017-06-27T01:15:27.002Z,11.84
2017-06-27T01:16:27.003Z,11.88
2017-06-27T01:17:27.011Z,11.82
2017-06-27T01:18:26.661Z,11.82
2017-06-27T01:19:26.660Z,11.79
2017-06-27T01:20:26.328Z,11.76
2017-06-27T01:21:26.645Z,11.82
2017-06-27T01:22:27.009Z,11.75
2017-06-27T01:23:26.951Z,11.75
2017-06-27T01:24:26.620Z,11.76
2017-06-27T01:25:26.299Z,11.76
2017-06-27T01:26:26.609Z,11.84
2017-06-27T01:27:26.946Z,11.78
2017-06-27T01:28:26.959Z,11.84
2017-06-27T01:29:26.921Z,11.81
2017-06-27T01:30:26.265Z,11.73
2017-06-27T01:31:26.578Z,11.73
2017-06-27T01:32:26.581Z,11.71
2017-06-27T01:33:26.561Z,11.78
2017-06-27T01:34:26.558Z,11.63
2017-06-27T01:35:26.575Z,11.68
2017-06-27T01:36:26.554Z,11.73
2017-06-27T01:37:26.563Z,11.75
2017-06-27T01:38:26.556Z,11.68
2017-06-27T01:39:26.527Z,11.68
2017-06-27T01:40:26.520Z,11.75
2017-06-27T01:41:26.515Z,11.7
2017-06-27T01:42:26.847Z,11.67
2017-06-27T01:43:26.837Z,11.68
2017-06-27T01:44:26.172Z,11.63
2017-06-27T01:45:26.495Z,11.63
2017-06-27T01:46:26.847Z,11.63
2017-06-27T01:47:26.478Z,11.61
2017-06-27T01:48:26.788Z,11.59
2017-06-27T01:49:26.778Z,11.63
2017-06-27T01:50:26.454Z,11.59
2017-06-27T01:51:26.474Z,11.61
2017-06-27T01:52:26.761Z,11.59
2017-06-27T01:53:26.754Z,11.66
2017-06-27T01:54:26.425Z,11.6
2017-06-27T01:55:26.746Z,11.56
2017-06-27T01:56:26.094Z,11.53
2017-06-27T01:57:26.724Z,11.63
2017-06-27T01:58:26.718Z,11.67
2017-06-27T01:59:26.427Z,11.6
2017-06-27T02:00:26.065Z,11.56
2017-06-27T02:01:26.703Z,11.57
2017-06-27T02:02:26.693Z,11.56
2017-06-27T02:03:26.048Z,11.66
2017-06-27T02:04:26.378Z,11.6
2017-06-27T02:05:26.366Z,11.64
2017-06-27T02:06:26.025Z,11.66
2017-06-27T02:07:26.695Z,11.64
2017-06-27T02:08:26.356Z,11.66
2017-06-27T02:09:26.331Z,11.71
2017-06-27T02:10:26.331Z,11.7
2017-06-27T02:11:26.315Z,11.67
2017-06-27T02:12:25.985Z,11.68
2017-06-27T02:13:26.640Z,11.71
2017-06-27T02:14:26.621Z,11.73
2017-06-27T02:15:26.613Z,11.68
2017-06-27T02:16:26.620Z,11.66
2017-06-27T02:17:26.593Z,11.66
2017-06-27T02:18:26.621Z,11.63
2017-06-27T02:19:26.590Z,11.79
2017-06-27T02:20:26.271Z,11.66
2017-06-27T02:21:26.254Z,11.68
2017-06-27T02:22:26.255Z,11.64
2017-06-27T02:23:26.560Z,11.75
2017-06-27T02:24:26.549Z,11.67
2017-06-27T02:25:26.664Z,11.71
2017-06-27T02:26:26.232Z,11.71
2017-06-27T02:27:26.209Z,11.66
2017-06-27T02:28:26.204Z,11.66
2017-06-27T02:29:26.536Z,11.7
2017-06-27T02:30:26.195Z,11.66
2017-06-27T02:31:26.521Z,11.71
2017-06-27T02:32:26.182Z,11.61
2017-06-27T02:33:26.170Z,11.7
2017-06-27T02:34:26.162Z,11.81
2017-06-27T02:35:25.837Z,11.79
2017-06-27T02:36:26.472Z,11.75
2017-06-27T02:37:26.472Z,11.84
2017-06-27T02:38:26.135Z,11.91
2017-06-27T02:39:26.133Z,11.79
2017-06-27T02:40:26.468Z,11.86
2017-06-27T02:41:26.118Z,11.89
2017-06-27T02:42:26.125Z,11.82
2017-06-27T02:43:26.099Z,11.94
2017-06-27T02:44:26.109Z,11.94
2017-06-27T02:45:26.409Z,11.94
2017-06-27T02:46:26.404Z,11.98
2017-06-27T02:47:25.761Z,12.04
2017-06-27T02:48:25.747Z,11.91
2017-06-27T02:49:26.399Z,12.03
2017-06-27T02:50:26.398Z,12.07
2017-06-27T02:51:26.057Z,12.01
2017-06-27T02:52:26.041Z,12.07
2017-06-27T02:53:26.356Z,12.01
2017-06-27T02:54:26.348Z,12.18
2017-06-27T02:55:26.349Z,12.1
2017-06-27T02:56:26.351Z,12.11
2017-06-27T02:57:26.012Z,12.25
2017-06-27T02:58:25.689Z,12.19
2017-06-27T02:59:26.018Z,12.15
2017-06-27T03:00:25.994Z,12.2
2017-06-27T03:01:26.305Z,12.19
2017-06-27T03:02:26.298Z,12.16
2017-06-27T03:03:26.305Z,12.2
2017-06-27T03:04:26.287Z,12.13
2017-06-27T03:05:25.959Z,12.2
2017-06-27T03:06:25.987Z,12.13
2017-06-27T03:07:25.965Z,12.1
2017-06-27T03:08:25.950Z,12.16
2017-06-27T03:09:25.938Z,12.16
2017-06-27T03:10:25.924Z,12.11
2017-06-27T03:11:26.269Z,12.07
2017-06-27T03:12:25.593Z,12.11
2017-06-27T03:13:26.227Z,12.13
2017-06-27T03:14:25.583Z,12.19
2017-06-27T03:15:26.229Z,12.13
2017-06-27T03:16:26.208Z,12.15
2017-06-27T03:17:26.216Z,12.13
2017-06-27T03:18:25.906Z,12.16
2017-06-27T03:19:25.908Z,12.11
2017-06-27T03:20:26.192Z,12.1
2017-06-27T03:21:25.858Z,12.13
2017-06-27T03:22:26.183Z,12.19
2017-06-27T03:23:25.840Z,12.15
2017-06-27T03:24:26.156Z,12.18
2017-06-27T03:25:26.150Z,12.18
2017-06-27T03:26:26.141Z,12.18
2017-06-27T03:27:25.495Z,12.2
2017-06-27T03:28:25.826Z,12.2
2017-06-27T03:29:26.138Z,12.25
2017-06-27T03:30:25.796Z,12.2
2017-06-27T03:31:26.124Z,12.22
2017-06-27T03:32:25.785Z,12.2
2017-06-27T03:33:26.099Z,12.22
2017-06-27T03:34:25.782Z,12.33
2017-06-27T03:35:26.109Z,12.29
2017-06-27T03:36:26.080Z,12.23
2017-06-27T03:37:25.781Z,12.28
2017-06-27T03:38:26.065Z,12.31
2017-06-27T03:39:26.062Z,12.31
2017-06-27T03:40:26.063Z,12.34
2017-06-27T03:41:26.047Z,12.33
2017-06-27T03:42:26.049Z,12.31
2017-06-27T03:43:25.748Z,12.31
2017-06-27T03:44:25.726Z,12.41
2017-06-27T03:45:26.036Z,12.45
2017-06-27T03:46:25.710Z,12.43
2017-06-27T03:47:25.701Z,12.44
2017-06-27T03:48:25.678Z,12.44
2017-06-27T03:49:25.678Z,12.48
2017-06-27T03:50:26.021Z,12.53
2017-06-27T03:51:26.005Z,12.55
2017-06-27T03:52:25.978Z,12.56
2017-06-27T03:53:25.648Z,12.53
2017-06-27T03:54:25.675Z,12.65
2017-06-27T03:55:25.958Z,12.59
2017-06-27T03:56:25.959Z,12.61
2017-06-27T03:57:25.629Z,12.66
2017-06-27T03:58:25.657Z,12.78
2017-06-27T03:59:25.611Z,12.78
2017-06-27T04:00:25.630Z,12.83
2017-06-27T04:01:25.619Z,12.84
2017-06-27T04:02:25.606Z,12.89
2017-06-27T04:03:25.908Z,12.92
2017-06-27T04:04:25.581Z,12.96
2017-06-27T04:05:25.573Z,13.13
2017-06-27T04:06:25.892Z,13.09
2017-06-27T04:07:25.563Z,13.21
2017-06-27T04:08:25.559Z,13.2
2017-06-27T04:09:25.878Z,13.21
2017-06-27T04:10:25.547Z,13.39
2017-06-27T04:11:25.596Z,13.35
2017-06-27T04:12:25.543Z,13.36
2017-06-27T04:13:25.231Z,13.45
2017-06-27T04:14:25.842Z,13.42
2017-06-27T04:15:25.846Z,13.45
2017-06-27T04:16:25.515Z,13.55
2017-06-27T04:17:25.189Z,13.53
2017-06-27T04:18:25.512Z,13.65
2017-06-27T04:19:25.823Z,13.7
2017-06-27T04:20:25.492Z,13.68
2017-06-27T04:21:25.485Z,13.81
2017-06-27T04:22:25.799Z,13.86
2017-06-27T04:23:25.804Z,13.97
2017-06-27T04:24:25.788Z,14.06
2017-06-27T04:25:25.151Z,13.95
2017-06-27T04:26:25.775Z,14.08
2017-06-27T04:27:25.775Z,14.11
2017-06-27T04:28:25.444Z,14.19
2017-06-27T04:29:25.762Z,14.33
2017-06-27T04:30:25.795Z,14.31
2017-06-27T04:31:25.113Z,14.31
2017-06-27T04:32:25.437Z,14.44
2017-06-27T04:33:25.423Z,14.46
2017-06-27T04:34:25.736Z,14.45
2017-06-27T04:35:25.781Z,14.48
2017-06-27T04:36:25.421Z,14.48
2017-06-27T04:37:25.726Z,14.63
2017-06-27T04:38:25.071Z,14.64
2017-06-27T04:39:25.384Z,14.66
2017-06-27T04:40:25.702Z,14.64
2017-06-27T04:41:25.705Z,14.77
2017-06-27T04:42:25.695Z,14.8
2017-06-27T04:43:25.693Z,14.83
2017-06-27T04:44:25.693Z,14.86
2017-06-27T04:45:25.364Z,14.93
2017-06-27T04:46:25.680Z,15.01
2017-06-27T04:47:25.690Z,14.98
2017-06-27T04:48:25.352Z,15.1
2017-06-27T04:49:25.664Z,15.16
2017-06-27T04:50:25.337Z,15.15
2017-06-27T04:51:25.651Z,15.13
2017-06-27T04:52:25.334Z,15.22
2017-06-27T04:53:25.324Z,15.16
2017-06-27T04:54:25.019Z,15.16
2017-06-27T04:55:25.646Z,15.22
2017-06-27T04:56:25.627Z,15.26
2017-06-27T04:57:25.655Z,15.34
2017-06-27T04:58:25.622Z,15.34
2017-06-27T04:59:25.297Z,15.45
2017-06-27T05:00:24.975Z,15.47
2017-06-27T05:01:25.288Z,15.65
2017-06-27T05:02:25.613Z,15.75
2017-06-27T05:03:24.962Z,15.74
2017-06-27T05:04:25.598Z,15.91
2017-06-27T05:05:25.273Z,15.98
2017-06-27T05:06:25.284Z,16.11
2017-06-27T05:07:25.264Z,16.11
2017-06-27T05:08:25.584Z,16.26
2017-06-27T05:09:25.575Z,16.29
2017-06-27T05:10:25.575Z,16.3
2017-06-27T05:11:25.253Z,16.32
2017-06-27T05:12:25.601Z,16.33
2017-06-27T05:13:25.238Z,16.49
2017-06-27T05:14:25.239Z,16.47
2017-06-27T05:15:25.239Z,16.55
2017-06-27T05:16:25.245Z,16.67
2017-06-27T05:17:25.545Z,16.69
2017-06-27T05:18:25.546Z,16.82
2017-06-27T05:19:24.895Z,16.88
2017-06-27T05:20:25.537Z,16.99
2017-06-27T05:21:25.533Z,16.94
2017-06-27T05:22:25.212Z,17.05
2017-06-27T05:23:25.541Z,17.05
2017-06-27T05:24:25.536Z,17.18
2017-06-27T05:25:25.527Z,17.21
2017-06-27T05:26:25.517Z,17.24
2017-06-27T05:27:25.515Z,17.3
2017-06-27T05:28:25.517Z,17.31
2017-06-27T05:29:25.527Z,17.32
2017-06-27T05:30:25.183Z,17.3
2017-06-27T05:31:25.236Z,17.31
2017-06-27T05:32:25.500Z,17.39
2017-06-27T05:33:25.496Z,17.46
2017-06-27T05:34:25.497Z,17.47
2017-06-27T05:35:25.174Z,17.58
2017-06-27T05:36:25.500Z,17.68
2017-06-27T05:37:25.183Z,17.68
2017-06-27T05:38:25.484Z,17.77
2017-06-27T05:39:25.162Z,17.69
2017-06-27T05:40:24.849Z,17.69
2017-06-27T05:41:25.158Z,17.77
2017-06-27T05:42:25.474Z,17.68
2017-06-27T05:43:25.474Z,17.69
2017-06-27T05:44:24.836Z,17.58
2017-06-27T05:45:25.149Z,17.55
2017-06-27T05:46:25.466Z,17.6
2017-06-27T05:47:24.828Z,17.49
2017-06-27T05:48:25.509Z,17.6
2017-06-27T05:49:25.140Z,17.31
2017-06-27T05:50:25.471Z,17.24
2017-06-27T05:51:25.129Z,17.2
2017-06-27T05:52:25.473Z,17.1
2017-06-27T05:53:25.127Z,17.13
2017-06-27T05:54:25.135Z,17.05
2017-06-27T05:55:25.121Z,17.15
2017-06-27T05:56:25.120Z,17.02
2017-06-27T05:57:25.156Z,17.07
2017-06-27T05:58:25.162Z,17.02
2017-06-27T05:59:25.111Z,17.02
2017-06-27T06:00:24.794Z,16.99
2017-06-27T06:01:25.429Z,17.1
2017-06-27T06:02:25.102Z,17.03
2017-06-27T06:03:25.131Z,17.15
2017-06-27T06:04:24.791Z,17.18
2017-06-27T06:05:25.099Z,17.17
2017-06-27T06:06:25.418Z,17.27
2017-06-27T06:07:25.086Z,17.38
2017-06-27T06:08:25.085Z,17.47
2017-06-27T06:09:25.098Z,17.47
2017-06-27T06:10:25.410Z,17.55
2017-06-27T06:11:24.762Z,17.74
2017-06-27T06:12:25.100Z,17.8
2017-06-27T06:13:24.756Z,18.01
2017-06-27T06:14:25.102Z,18.03
2017-06-27T06:15:25.070Z,18.11
2017-06-27T06:16:25.068Z,18.31
2017-06-27T06:17:25.394Z,18.31
2017-06-27T06:18:25.384Z,18.54
2017-06-27T06:19:25.086Z,18.61
2017-06-27T06:20:25.383Z,18.71
2017-06-27T06:21:25.386Z,18.76
2017-06-27T06:22:24.735Z,18.79
2017-06-27T06:23:25.375Z,18.9
2017-06-27T06:24:25.376Z,18.99
2017-06-27T06:25:25.050Z,19.05
2017-06-27T06:26:25.054Z,19.23
2017-06-27T06:27:25.386Z,19.25
2017-06-27T06:28:25.047Z,19.38
2017-06-27T06:29:25.375Z,19.53
2017-06-27T06:30:25.040Z,19.6
2017-06-27T06:31:25.057Z,19.67
2017-06-27T06:32:25.360Z,19.79
2017-06-27T06:33:25.036Z,19.9
2017-06-27T06:34:25.035Z,20
2017-06-27T06:35:25.359Z,20.05
2017-06-27T06:36:25.367Z,20.16
2017-06-27T06:37:25.376Z,20.29
2017-06-27T06:38:25.032Z,20.35
2017-06-27T06:39:25.354Z,20.41
2017-06-27T06:40:25.031Z,20.48
2017-06-27T06:41:25.361Z,20.64
2017-06-27T06:42:25.349Z,20.81
2017-06-27T06:43:25.031Z,20.98
2017-06-27T06:44:25.349Z,21.16
2017-06-27T06:45:25.348Z,21.18
2017-06-27T06:46:25.025Z,21.19
2017-06-27T06:47:25.354Z,21.23
2017-06-27T06:48:25.347Z,21.31
2017-06-27T06:49:25.031Z,21.16
2017-06-27T06:50:25.347Z,21.15
2017-06-27T06:51:25.025Z,21.16
2017-06-27T06:52:25.028Z,21.18
2017-06-27T06:53:24.703Z,21.16
2017-06-27T06:54:25.347Z,21.19
2017-06-27T06:55:25.378Z,21.16
2017-06-27T06:56:24.706Z,21.25
2017-06-27T06:57:25.365Z,21.27
2017-06-27T06:58:25.347Z,21.38
2017-06-27T06:59:25.346Z,21.4
2017-06-27T07:00:25.342Z,21.52
2017-06-27T07:01:25.358Z,21.64
2017-06-27T07:02:25.080Z,21.68
2017-06-27T07:03:24.723Z,21.68
2017-06-27T07:04:25.355Z,21.76
2017-06-27T07:05:25.349Z,21.76
2017-06-27T07:06:25.028Z,21.82
2017-06-27T07:07:25.041Z,21.74
2017-06-27T07:08:25.361Z,21.83
2017-06-27T07:09:25.352Z,21.99
2017-06-27T07:10:25.034Z,21.99
2017-06-27T07:11:25.031Z,21.96
2017-06-27T07:12:24.710Z,22
2017-06-27T07:13:25.363Z,22
2017-06-27T07:14:25.033Z,21.9
2017-06-27T07:15:25.052Z,21.73
2017-06-27T07:16:25.034Z,21.67
2017-06-27T07:17:25.354Z,21.62
2017-06-27T07:18:25.357Z,21.59
2017-06-27T07:19:25.355Z,21.56
2017-06-27T07:20:25.037Z,21.59
2017-06-27T07:21:25.037Z,21.62
2017-06-27T07:22:25.361Z,21.49
2017-06-27T07:23:25.046Z,21.51
2017-06-27T07:24:25.042Z,21.56
2017-06-27T07:25:25.047Z,21.51
2017-06-27T07:26:25.094Z,21.49
2017-06-27T07:27:25.365Z,21.51
2017-06-27T07:28:25.363Z,21.46
2017-06-27T07:29:25.047Z,21.4
2017-06-27T07:30:25.061Z,21.45
2017-06-27T07:31:25.051Z,21.37
2017-06-27T07:32:25.044Z,21.36
2017-06-27T07:33:24.746Z,21.25
2017-06-27T07:34:25.058Z,21.33
2017-06-27T07:35:25.375Z,21.21
2017-06-27T07:36:31.661Z,21.19
2017-06-27T07:37:25.120Z,21.25
2017-06-27T07:38:25.055Z,21.16
2017-06-27T07:39:25.062Z,21.19
2017-06-27T07:40:25.089Z,21.3
2017-06-27T07:41:25.111Z,21.23
2017-06-27T07:42:24.737Z,21.23
2017-06-27T07:43:25.064Z,21.23
2017-06-27T07:44:25.382Z,21.34
2017-06-27T07:45:25.389Z,21.41
2017-06-27T07:46:25.388Z,21.45
2017-06-27T07:47:25.383Z,21.38
2017-06-27T07:48:25.388Z,21.48
2017-06-27T07:49:25.063Z,21.53
2017-06-27T07:50:25.096Z,21.38
2017-06-27T07:51:25.384Z,21.4
2017-06-27T07:52:25.066Z,21.43
2017-06-27T07:53:25.068Z,21.37
2017-06-27T07:54:25.071Z,21.38
2017-06-27T07:55:25.403Z,21.45
2017-06-27T07:56:25.070Z,21.41
2017-06-27T07:57:25.394Z,21.38
2017-06-27T07:58:25.392Z,21.43
2017-06-27T07:59:25.072Z,21.41
2017-06-27T08:00:25.396Z,21.48
2017-06-27T08:01:25.073Z,21.23
2017-06-27T08:02:25.076Z,21.37
2017-06-27T08:03:25.398Z,21.16
2017-06-27T08:04:25.397Z,21.13
2017-06-27T08:05:25.398Z,21.18
2017-06-27T08:06:25.401Z,21.15
2017-06-27T08:07:25.402Z,21.08
2017-06-27T08:08:25.401Z,20.91
2017-06-27T08:09:24.758Z,20.82
2017-06-27T08:10:24.758Z,20.82
2017-06-27T08:11:25.084Z,20.76
2017-06-27T08:12:25.407Z,20.81
2017-06-27T08:13:25.092Z,20.81
2017-06-27T08:14:24.767Z,20.86
2017-06-27T08:15:25.406Z,20.79
2017-06-27T08:16:25.444Z,20.75
2017-06-27T08:17:25.410Z,20.74
2017-06-27T08:18:25.420Z,20.67
2017-06-27T08:19:25.407Z,20.63
2017-06-27T08:20:25.412Z,20.56
2017-06-27T08:21:25.141Z,20.49
2017-06-27T08:22:25.408Z,20.49
2017-06-27T08:23:25.413Z,20.51
2017-06-27T08:24:24.765Z,20.51
2017-06-27T08:25:25.093Z,20.61
2017-06-27T08:26:25.415Z,20.57
2017-06-27T08:27:25.089Z,20.67
2017-06-27T08:28:25.431Z,20.74
2017-06-27T08:29:25.104Z,20.68
2017-06-27T08:30:24.768Z,20.63
2017-06-27T08:31:25.093Z,20.58
2017-06-27T08:32:25.413Z,20.6
2017-06-27T08:33:25.092Z,20.58
2017-06-27T08:34:25.433Z,20.57
2017-06-27T08:35:24.770Z,20.66
2017-06-27T08:36:25.421Z,20.57
2017-06-27T08:37:25.090Z,20.63
2017-06-27T08:38:25.094Z,20.57
2017-06-27T08:39:24.773Z,20.53
2017-06-27T08:40:25.627Z,20.51
2017-06-27T08:41:25.112Z,20.6
2017-06-27T08:42:25.442Z,20.57
2017-06-27T08:43:25.101Z,20.61
2017-06-27T08:44:25.095Z,20.6
2017-06-27T08:45:25.420Z,20.58
2017-06-27T08:46:24.775Z,20.61
2017-06-27T08:47:25.094Z,20.56
2017-06-27T08:48:25.104Z,20.61
2017-06-27T08:49:25.102Z,20.57
2017-06-27T08:50:25.442Z,20.64
2017-06-27T08:51:25.481Z,20.71
2017-06-27T08:52:25.096Z,20.64
2017-06-27T08:53:25.104Z,20.64
2017-06-27T08:54:25.423Z,20.6
2017-06-27T08:55:25.425Z,20.56
2017-06-27T08:56:25.422Z,20.57
2017-06-27T08:57:25.428Z,20.61
2017-06-27T08:58:25.100Z,20.61
2017-06-27T08:59:25.422Z,20.57
2017-06-27T09:00:25.099Z,20.6
2017-06-27T09:01:25.110Z,20.57
2017-06-27T09:02:25.101Z,20.63
2017-06-27T09:03:25.440Z,20.57
2017-06-27T09:04:25.099Z,20.51
2017-06-27T09:05:25.433Z,20.46
2017-06-27T09:06:25.445Z,20.35
2017-06-27T09:07:25.443Z,20.42
2017-06-27T09:08:24.785Z,20.32
2017-06-27T09:09:25.425Z,20.4
2017-06-27T09:10:25.130Z,20.32
2017-06-27T09:11:25.105Z,20.32
2017-06-27T09:12:25.116Z,20.4
2017-06-27T09:13:25.423Z,20.38
2017-06-27T09:14:24.777Z,20.38
2017-06-27T09:15:24.806Z,20.4
2017-06-27T09:16:25.103Z,20.44
2017-06-27T09:17:25.111Z,20.46
2017-06-27T09:18:25.105Z,20.4
2017-06-27T09:19:24.784Z,20.48
2017-06-27T09:20:25.421Z,20.6
2017-06-27T09:21:25.124Z,20.56
2017-06-27T09:22:25.103Z,20.72
2017-06-27T09:23:25.439Z,20.74
2017-06-27T09:24:25.425Z,20.79
2017-06-27T09:25:25.105Z,20.82
2017-06-27T09:26:25.441Z,20.91
2017-06-27T09:27:25.104Z,20.93
2017-06-27T09:28:25.422Z,20.94
2017-06-27T09:29:25.428Z,20.86
2017-06-27T09:30:25.117Z,20.94
2017-06-27T09:31:25.464Z,21.01
2017-06-27T09:32:25.436Z,21.06
2017-06-27T09:33:25.428Z,21.16
2017-06-27T09:34:25.431Z,21.33
2017-06-27T09:35:25.431Z,21.28
2017-06-27T09:36:25.430Z,21.28
2017-06-27T09:37:25.428Z,21.37
2017-06-27T09:38:25.103Z,21.36
2017-06-27T09:39:25.110Z,21.25
2017-06-27T09:40:25.429Z,21.15
2017-06-27T09:41:25.430Z,21.01
2017-06-27T09:42:25.104Z,21.01
2017-06-27T09:43:25.431Z,20.98
2017-06-27T09:44:24.789Z,20.86
2017-06-27T09:45:25.446Z,20.98
2017-06-27T09:46:25.427Z,20.93
2017-06-27T09:47:25.110Z,20.9
2017-06-27T09:48:25.430Z,20.93
2017-06-27T09:49:25.434Z,20.93
2017-06-27T09:50:25.431Z,20.94
2017-06-27T09:51:25.113Z,20.78
2017-06-27T09:52:25.437Z,20.93
2017-06-27T09:53:25.111Z,20.97
2017-06-27T09:54:24.789Z,20.83
2017-06-27T09:55:25.448Z,20.81
2017-06-27T09:56:25.454Z,20.9
2017-06-27T09:57:25.162Z,20.85
2017-06-27T09:58:25.124Z,20.81
2017-06-27T09:59:25.437Z,20.75
2017-06-27T10:00:25.458Z,20.57
2017-06-27T10:01:25.117Z,20.56
2017-06-27T10:02:25.439Z,20.46
2017-06-27T10:03:25.155Z,20.29
2017-06-27T10:04:25.120Z,20.11
2017-06-27T10:05:25.437Z,20.07
2017-06-27T10:06:24.814Z,20.07
2017-06-27T10:07:25.440Z,20.02
2017-06-27T10:08:25.116Z,19.98
2017-06-27T10:09:24.794Z,19.93
2017-06-27T10:10:25.117Z,19.9
2017-06-27T10:11:25.119Z,19.89
2017-06-27T10:12:25.440Z,19.86
2017-06-27T10:13:25.441Z,19.86
2017-06-27T10:14:25.445Z,19.83
2017-06-27T10:15:25.437Z,19.74
2017-06-27T10:16:25.497Z,19.82
2017-06-27T10:17:25.442Z,19.86
2017-06-27T10:18:25.444Z,19.83
2017-06-27T10:19:25.440Z,19.85
2017-06-27T10:20:25.442Z,19.86
2017-06-27T10:21:25.469Z,19.87
2017-06-27T10:22:25.443Z,19.97
2017-06-27T10:23:25.463Z,19.85
2017-06-27T10:24:24.795Z,19.95
2017-06-27T10:25:25.444Z,19.92
2017-06-27T10:26:25.115Z,20
2017-06-27T10:27:25.457Z,19.97
2017-06-27T10:28:25.439Z,20.02
2017-06-27T10:29:25.117Z,20.04
2017-06-27T10:30:25.114Z,20.04
2017-06-27T10:31:25.119Z,20.05
2017-06-27T10:32:25.130Z,20.01
2017-06-27T10:33:25.436Z,20.11
2017-06-27T10:34:25.116Z,20.15
2017-06-27T10:35:25.439Z,20.19
2017-06-27T10:36:25.457Z,20.18
2017-06-27T10:37:25.455Z,20.23
2017-06-27T10:38:25.438Z,20.34
2017-06-27T10:39:25.115Z,20.25
2017-06-27T10:40:25.133Z,20.37
2017-06-27T10:41:25.438Z,20.41
2017-06-27T10:42:24.793Z,20.41
2017-06-27T10:43:24.800Z,20.44
2017-06-27T10:44:25.112Z,20.42
2017-06-27T10:45:25.122Z,20.51
2017-06-27T10:46:25.123Z,20.49
2017-06-27T10:47:25.436Z,20.42
2017-06-27T10:48:25.116Z,20.49
2017-06-27T10:49:25.113Z,20.58
2017-06-27T10:50:25.433Z,20.64
2017-06-27T10:51:25.440Z,20.66
2017-06-27T10:52:25.114Z,20.67
2017-06-27T10:53:24.802Z,20.74
2017-06-27T10:54:25.436Z,20.83
2017-06-27T10:55:25.435Z,20.81
2017-06-27T10:56:25.116Z,20.96
2017-06-27T10:57:25.439Z,20.9
2017-06-27T10:58:25.116Z,20.93
2017-06-27T10:59:24.792Z,20.97
2017-06-27T11:00:25.456Z,20.88
2017-06-27T11:01:25.116Z,20.86
2017-06-27T11:02:25.149Z,20.79
2017-06-27T11:03:25.471Z,20.78
2017-06-27T11:04:25.446Z,20.88
2017-06-27T11:05:25.444Z,20.9
2017-06-27T11:06:25.143Z,21.03
2017-06-27T11:07:25.119Z,21.08
2017-06-27T11:08:25.447Z,21.08
2017-06-27T11:09:24.807Z,21.15
2017-06-27T11:10:25.117Z,21.13
2017-06-27T11:11:25.124Z,21.16
2017-06-27T11:12:25.126Z,21.15
2017-06-27T11:13:25.126Z,21.08
2017-06-27T11:14:25.448Z,21.19
2017-06-27T11:15:24.816Z,21.31
2017-06-27T11:16:25.124Z,21.25
2017-06-27T11:17:24.800Z,21.46
2017-06-27T11:18:25.464Z,21.36
2017-06-27T11:19:25.456Z,21.34
2017-06-27T11:20:25.128Z,21.46
2017-06-27T11:21:25.129Z,21.51
2017-06-27T11:22:25.127Z,21.58
2017-06-27T11:23:25.456Z,21.62
2017-06-27T11:24:25.450Z,21.64
2017-06-27T11:25:25.482Z,21.62
2017-06-27T11:26:24.828Z,21.64
2017-06-27T11:27:25.132Z,21.59
2017-06-27T11:28:25.456Z,21.51
2017-06-27T11:29:25.131Z,21.49
2017-06-27T11:30:24.816Z,21.4
2017-06-27T11:31:25.135Z,21.34
2017-06-27T11:32:25.143Z,21.33
2017-06-27T11:33:25.467Z,21.38
2017-06-27T11:34:25.463Z,21.38
2017-06-27T11:35:25.159Z,21.37
2017-06-27T11:36:25.165Z,21.34
2017-06-27T11:37:25.141Z,21.38
2017-06-27T11:38:25.151Z,21.37
2017-06-27T11:39:25.471Z,21.38
2017-06-27T11:40:25.142Z,21.34
2017-06-27T11:41:25.147Z,21.37
2017-06-27T11:42:25.163Z,21.25
2017-06-27T11:43:25.163Z,21.22
2017-06-27T11:44:25.150Z,21.15
2017-06-27T11:45:25.472Z,21.04
2017-06-27T11:46:25.152Z,21.13
2017-06-27T11:47:25.475Z,21.19
2017-06-27T11:48:25.475Z,21.21
2017-06-27T11:49:25.154Z,21.25
2017-06-27T11:50:25.476Z,21.4
2017-06-27T11:51:25.155Z,21.31
2017-06-27T11:52:25.159Z,21.48
2017-06-27T11:53:25.159Z,21.43
2017-06-27T11:54:25.477Z,21.56
2017-06-27T11:55:24.836Z,21.76
2017-06-27T11:56:25.158Z,21.77
2017-06-27T11:57:25.166Z,21.76
2017-06-27T11:58:25.164Z,21.78
2017-06-27T11:59:25.489Z,21.86
2017-06-27T12:00:25.503Z,22.07
2017-06-27T12:01:25.499Z,22.08
2017-06-27T12:02:25.484Z,22.29
2017-06-27T12:03:24.861Z,22.3
2017-06-27T12:04:25.171Z,22.3
2017-06-27T12:05:25.165Z,22.38
2017-06-27T12:06:25.489Z,22.48
2017-06-27T12:07:24.846Z,22.6
2017-06-27T12:08:25.491Z,22.64
2017-06-27T12:09:25.500Z,22.79
2017-06-27T12:10:25.509Z,22.84
2017-06-27T12:11:25.511Z,22.82
2017-06-27T12:12:25.497Z,22.92
2017-06-27T12:13:24.861Z,22.99
2017-06-27T12:14:25.178Z,22.99
2017-06-27T12:15:25.501Z,22.92
2017-06-27T12:16:25.508Z,22.91
2017-06-27T12:17:25.505Z,22.71
2017-06-27T12:18:24.862Z,22.78
2017-06-27T12:19:25.536Z,22.76
2017-06-27T12:20:25.509Z,22.76
2017-06-27T12:21:25.510Z,22.69
2017-06-27T12:22:25.513Z,22.69
2017-06-27T12:23:25.524Z,22.61
2017-06-27T12:24:24.874Z,22.55
2017-06-27T12:25:25.194Z,22.41
2017-06-27T12:26:25.219Z,22.33
2017-06-27T12:27:25.531Z,22.24
2017-06-27T12:28:24.881Z,22.2
2017-06-27T12:29:25.204Z,22.04
2017-06-27T12:30:25.207Z,22.04
2017-06-27T12:31:24.890Z,22.02
2017-06-27T12:32:25.228Z,21.9
2017-06-27T12:33:25.211Z,21.89
2017-06-27T12:34:25.215Z,21.71
2017-06-27T12:35:25.542Z,21.58
2017-06-27T12:36:25.545Z,21.59
2017-06-27T12:37:25.537Z,21.49
2017-06-27T12:38:25.237Z,21.49
2017-06-27T12:39:25.218Z,21.41
2017-06-27T12:40:25.220Z,21.45
2017-06-27T12:41:25.544Z,21.23
2017-06-27T12:42:25.226Z,21.18
2017-06-27T12:43:25.224Z,21.04
2017-06-27T12:44:25.543Z,20.88
2017-06-27T12:45:25.546Z,20.81
2017-06-27T12:46:25.226Z,20.75
2017-06-27T12:47:24.928Z,20.71
2017-06-27T12:48:25.548Z,20.63
2017-06-27T12:49:25.548Z,20.48
2017-06-27T12:50:25.568Z,20.41
2017-06-27T12:51:25.225Z,20.29
2017-06-27T12:52:25.566Z,20.32
2017-06-27T12:53:25.242Z,20.26
2017-06-27T12:54:25.551Z,20.12
2017-06-27T12:55:25.234Z,20.18